Time;durP1;ratioP1;P1;durP2;ratioP2;P2;SDS_P1;SDS_P2;PMS_P1;PMS_P2;Temp;Humidity;BMP_temperature;BMP_pressure;BME280_temperature;BME280_humidity;BME280_pressure;Samples;Min_cycle;Max_cycle;Signal;HPM_P1;HPM_P2
2023/12/03 00:02:12;;;;;;;2.67;0.70;;;;;;;;;;5058443;28;20056;-55
2023/12/03 00:04:37;;;;;;;2.47;0.98;;;;;;;;;;5075401;28;20211;-56
2023/12/03 00:07:03;;;;;;;2.60;1.00;;;;;;;;;;5060775;28;20517;-56
2023/12/03 00:09:28;;;;;;;2.70;0.75;;;;;;;;;;5060341;28;20035;-56
2023/12/03 00:11:53;;;;;;;2.95;0.80;;;;;;;;;;5059312;28;20032;-55
2023/12/03 00:14:19;;;;;;;3.28;0.75;;;;;;;;;;5061588;28;20091;-55
2023/12/03 00:16:44;;;;;;;3.25;1.10;;;;;;;;;;5057402;28;20163;-54
2023/12/03 00:19:09;;;;;;;2.13;0.80;;;;;;;;;;5060059;28;20077;-54
2023/12/03 00:21:35;;;;;;;3.03;0.70;;;;;;;;;;5059458;28;20545;-55
2023/12/03 00:24:00;;;;;;;2.13;0.60;;;;;;;;;;5059803;28;20870;-55
2023/12/03 00:26:26;;;;;;;1.90;0.82;;;;;;;;;;5057141;28;20055;-55
2023/12/03 00:28:51;;;;;;;3.42;0.95;;;;;;;;;;5056739;28;20490;-56
2023/12/03 00:31:16;;;;;;;3.00;0.68;;;;;;;;;;5060047;28;20044;-57
2023/12/03 00:33:42;;;;;;;2.08;0.77;;;;;;;;;;5058349;28;20524;-54
2023/12/03 00:36:07;;;;;;;2.05;0.65;;;;;;;;;;5061101;28;20051;-57
2023/12/03 00:38:32;;;;;;;2.50;0.80;;;;;;;;;;5059153;28;20033;-55
2023/12/03 00:40:58;;;;;;;5.32;1.10;;;;;;;;;;5057518;28;20088;-57
2023/12/03 00:43:23;;;;;;;3.20;0.75;;;;;;;;;;5058719;28;20029;-56
2023/12/03 00:45:51;;;;;;;3.45;0.93;;;;;;;;;;5064686;28;20033;-57
2023/12/03 00:48:16;;;;;;;3.70;1.00;;;;;;;;;;5064758;28;20037;-57
2023/12/03 00:50:42;;;;;;;2.50;0.80;;;;;;;;;;5064500;28;20063;-56
2023/12/03 00:53:07;;;;;;;2.85;0.90;;;;;;;;;;5064572;28;20510;-56
2023/12/03 00:55:32;;;;;;;2.13;0.70;;;;;;;;;;5064999;28;20094;-56
2023/12/03 00:57:58;;;;;;;3.00;0.90;;;;;;;;;;5064372;28;20059;-57
2023/12/03 01:05:53;;;;;;;1.30;0.68;;;;;;;;;;5037499;28;20048;-56
2023/12/03 01:08:19;;;;;;;1.83;0.70;;;;;;;;;;5075040;22;20050;-58
2023/12/03 01:10:44;;;;;;;4.90;1.02;;;;;;;;;;4990346;28;20057;-59
2023/12/03 01:13:09;;;;;;;1.55;0.60;;;;;;;;;;4979757;28;20038;-57
2023/12/03 01:15:34;;;;;;;1.63;0.63;;;;;;;;;;4996807;28;20030;-59
2023/12/03 01:18:00;;;;;;;3.42;0.60;;;;;;;;;;4981502;28;20868;-57
2023/12/03 01:20:25;;;;;;;2.20;0.57;;;;;;;;;;4986577;28;20188;-58
2023/12/03 01:22:50;;;;;;;2.33;0.68;;;;;;;;;;5005813;23;20097;-58
2023/12/03 01:25:16;;;;;;;3.22;0.65;;;;;;;;;;5011195;22;20049;-57
2023/12/03 01:27:41;;;;;;;2.25;0.70;;;;;;;;;;4999073;28;20038;-59
2023/12/03 01:30:06;;;;;;;2.55;0.70;;;;;;;;;;4997310;28;20517;-59
2023/12/03 01:32:32;;;;;;;2.42;0.70;;;;;;;;;;4970059;28;20116;-57
2023/12/03 01:34:57;;;;;;;1.48;0.70;;;;;;;;;;4951372;28;21340;-58
2023/12/03 01:37:22;;;;;;;2.88;0.73;;;;;;;;;;4968087;28;20042;-57
2023/12/03 01:39:49;;;;;;;2.55;0.80;;;;;;;;;;4966533;28;20129;-58
2023/12/03 01:42:14;;;;;;;3.17;0.70;;;;;;;;;;5013456;23;20053;-70
2023/12/03 01:44:39;;;;;;;2.13;0.95;;;;;;;;;;5037887;28;20044;-70
2023/12/03 01:47:05;;;;;;;2.03;0.73;;;;;;;;;;5042675;28;20037;-70
2023/12/03 01:49:30;;;;;;;1.98;0.70;;;;;;;;;;5042926;28;20051;-71
2023/12/03 01:51:56;;;;;;;3.17;0.80;;;;;;;;;;5041359;28;20033;-70
2023/12/03 01:54:21;;;;;;;4.38;1.20;;;;;;;;;;5041344;28;20040;-70
2023/12/03 01:56:47;;;;;;;3.83;1.00;;;;;;;;;;5026501;28;20041;-71
2023/12/03 01:59:12;;;;;;;2.50;0.73;;;;;;;;;;5042992;28;20114;-70
2023/12/03 02:01:38;;;;;;;2.17;0.70;;;;;;;;;;5042330;28;20049;-71
2023/12/03 02:04:03;;;;;;;3.55;0.80;;;;;;;;;;5042797;28;20020;-71
2023/12/03 02:06:29;;;;;;;2.47;0.70;;;;;;;;;;5043254;28;20027;-71
2023/12/03 02:08:54;;;;;;;3.65;0.80;;;;;;;;;;5043087;28;20021;-70
2023/12/03 02:11:19;;;;;;;2.90;0.90;;;;;;;;;;5044407;28;20115;-70
2023/12/03 02:13:45;;;;;;;1.83;0.60;;;;;;;;;;5042882;28;20543;-71
2023/12/03 02:16:10;;;;;;;3.58;1.10;;;;;;;;;;5042959;28;20064;-70
2023/12/03 02:18:36;;;;;;;4.70;0.80;;;;;;;;;;5043604;28;20385;-70
2023/12/03 02:21:01;;;;;;;4.05;0.93;;;;;;;;;;5044319;28;20024;-70
2023/12/03 02:23:29;;;;;;;3.30;0.60;;;;;;;;;;5043335;28;20021;-71
2023/12/03 02:25:54;;;;;;;2.50;0.82;;;;;;;;;;5040649;28;20091;-70
2023/12/03 02:28:20;;;;;;;3.05;0.90;;;;;;;;;;5035679;28;20410;-70
2023/12/03 02:30:45;;;;;;;2.72;0.82;;;;;;;;;;5043337;28;20028;-71
2023/12/03 02:33:10;;;;;;;2.38;0.70;;;;;;;;;;5043114;28;20017;-70
2023/12/03 02:35:36;;;;;;;3.38;0.80;;;;;;;;;;5027689;28;20048;-71
2023/12/03 02:38:01;;;;;;;2.92;0.63;;;;;;;;;;5044074;28;20105;-70
2023/12/03 02:40:29;;;;;;;2.28;0.65;;;;;;;;;;5044004;28;20033;-69
2023/12/03 02:42:54;;;;;;;2.25;0.70;;;;;;;;;;5026302;28;20032;-70
2023/12/03 02:45:19;;;;;;;2.33;0.80;;;;;;;;;;5043550;28;20021;-71
2023/12/03 02:47:45;;;;;;;3.20;0.70;;;;;;;;;;5043730;28;20528;-70
2023/12/03 02:50:10;;;;;;;4.15;0.80;;;;;;;;;;5043538;28;20029;-70
2023/12/03 02:52:35;;;;;;;4.60;0.60;;;;;;;;;;5039442;28;20032;-71
2023/12/03 02:55:01;;;;;;;3.42;0.90;;;;;;;;;;5046752;28;20098;-71
2023/12/03 02:57:26;;;;;;;2.03;0.60;;;;;;;;;;5034856;28;20020;-71
2023/12/03 02:59:51;;;;;;;3.88;0.90;;;;;;;;;;5040118;28;20036;-70
2023/12/03 03:02:17;;;;;;;2.78;0.73;;;;;;;;;;5043175;28;20469;-70
2023/12/03 03:04:42;;;;;;;2.30;0.60;;;;;;;;;;5043846;28;20052;-70
2023/12/03 03:07:07;;;;;;;3.17;0.75;;;;;;;;;;5045810;28;20024;-71
2023/12/03 03:09:33;;;;;;;1.55;0.73;;;;;;;;;;5048713;28;20017;-71
2023/12/03 03:11:58;;;;;;;4.32;0.88;;;;;;;;;;5047977;28;20053;-71
2023/12/03 03:14:26;;;;;;;2.15;0.80;;;;;;;;;;5047621;28;20515;-70
2023/12/03 03:16:51;;;;;;;1.38;0.65;;;;;;;;;;5046231;28;20021;-71
2023/12/03 03:19:17;;;;;;;2.00;0.60;;;;;;;;;;5047383;28;20032;-71
2023/12/03 03:21:42;;;;;;;2.22;0.70;;;;;;;;;;5042244;28;20135;-71
2023/12/03 03:24:07;;;;;;;2.47;0.73;;;;;;;;;;5037782;28;20044;-71
2023/12/03 03:26:33;;;;;;;2.15;0.60;;;;;;;;;;5044020;28;20041;-71
2023/12/03 03:28:58;;;;;;;4.32;0.93;;;;;;;;;;5047136;28;20044;-71
2023/12/03 03:31:23;;;;;;;2.08;0.50;;;;;;;;;;5047748;28;20116;-71
2023/12/03 03:33:49;;;;;;;3.22;0.90;;;;;;;;;;5046188;28;20086;-71
2023/12/03 03:36:14;;;;;;;3.63;0.90;;;;;;;;;;5045866;28;20179;-71
2023/12/03 03:38:40;;;;;;;2.53;0.90;;;;;;;;;;5062869;28;20041;-71
2023/12/03 03:41:05;;;;;;;4.30;0.82;;;;;;;;;;5047131;28;20456;-70
2023/12/03 03:43:31;;;;;;;2.30;0.60;;;;;;;;;;5045831;28;20416;-71
2023/12/03 03:45:56;;;;;;;3.00;0.77;;;;;;;;;;5046281;28;20039;-70
2023/12/03 03:48:22;;;;;;;2.30;0.82;;;;;;;;;;5045651;28;20132;-71
2023/12/03 03:50:47;;;;;;;2.90;0.80;;;;;;;;;;5047619;28;20033;-70
2023/12/03 03:53:13;;;;;;;3.72;0.73;;;;;;;;;;5034650;28;20064;-71
2023/12/03 03:55:38;;;;;;;2.22;0.65;;;;;;;;;;5033987;28;20108;-70
2023/12/03 03:58:03;;;;;;;3.63;0.85;;;;;;;;;;5046623;28;20029;-71
2023/12/03 04:00:29;;;;;;;1.50;0.52;;;;;;;;;;5047035;28;20128;-71
2023/12/03 04:02:54;;;;;;;2.05;0.77;;;;;;;;;;5047104;28;20025;-71
2023/12/03 04:05:19;;;;;;;2.88;1.00;;;;;;;;;;5046408;28;20044;-71
2023/12/03 04:07:45;;;;;;;2.90;0.57;;;;;;;;;;5046890;28;20037;-71
2023/12/03 04:10:10;;;;;;;2.67;0.60;;;;;;;;;;5044387;28;20581;-70
2023/12/03 04:12:35;;;;;;;2.83;0.80;;;;;;;;;;5045409;28;20607;-71
2023/12/03 04:15:01;;;;;;;2.80;0.80;;;;;;;;;;5040625;28;20556;-70
2023/12/03 04:17:26;;;;;;;2.17;0.60;;;;;;;;;;5046055;28;20107;-70
2023/12/03 04:19:51;;;;;;;1.55;0.68;;;;;;;;;;5046631;28;20124;-70
2023/12/03 04:22:17;;;;;;;2.33;0.60;;;;;;;;;;5045468;28;20179;-70
2023/12/03 04:24:44;;;;;;;1.77;0.70;;;;;;;;;;5046958;28;20033;-70
2023/12/03 04:27:09;;;;;;;1.20;0.55;;;;;;;;;;5045721;28;20106;-71
2023/12/03 04:29:35;;;;;;;2.25;0.68;;;;;;;;;;5046924;28;20037;-70
2023/12/03 04:32:00;;;;;;;2.97;0.73;;;;;;;;;;5036840;28;20045;-70
2023/12/03 04:34:25;;;;;;;2.80;0.80;;;;;;;;;;5037348;28;20064;-70
2023/12/03 04:36:51;;;;;;;2.17;0.57;;;;;;;;;;5045666;28;20032;-70
2023/12/03 04:39:16;;;;;;;2.03;0.40;;;;;;;;;;5046600;28;20500;-69
2023/12/03 04:41:41;;;;;;;1.58;0.68;;;;;;;;;;5046916;28;20072;-70
2023/12/03 04:44:06;;;;;;;2.03;0.63;;;;;;;;;;5046295;28;20477;-70
2023/12/03 04:46:32;;;;;;;3.38;1.15;;;;;;;;;;5046349;28;20029;-71
2023/12/03 04:48:57;;;;;;;2.47;0.70;;;;;;;;;;5046065;28;20503;-69
2023/12/03 04:51:23;;;;;;;2.33;0.70;;;;;;;;;;5037778;28;20028;-70
2023/12/03 04:53:48;;;;;;;1.33;0.47;;;;;;;;;;5046250;28;20497;-70
2023/12/03 04:56:13;;;;;;;2.40;0.70;;;;;;;;;;5045975;28;20029;-71
2023/12/03 04:58:39;;;;;;;2.03;0.88;;;;;;;;;;5061374;28;20037;-70
2023/12/03 05:01:04;;;;;;;1.60;0.60;;;;;;;;;;5045435;28;20056;-70
2023/12/03 05:03:29;;;;;;;1.73;0.60;;;;;;;;;;5059642;28;20048;-70
2023/12/03 05:05:55;;;;;;;2.28;0.70;;;;;;;;;;5041374;28;20523;-71
2023/12/03 05:08:20;;;;;;;1.77;0.60;;;;;;;;;;5036490;28;20037;-71
2023/12/03 05:10:45;;;;;;;2.22;0.70;;;;;;;;;;5043969;28;20061;-71
2023/12/03 05:13:11;;;;;;;1.80;0.50;;;;;;;;;;5043981;28;20029;-71
2023/12/03 05:15:36;;;;;;;1.65;0.60;;;;;;;;;;5045765;28;20035;-71
2023/12/03 05:18:01;;;;;;;2.10;0.77;;;;;;;;;;5044444;28;20024;-71
2023/12/03 05:20:27;;;;;;;1.63;0.57;;;;;;;;;;5044281;28;20477;-71
2023/12/03 05:22:53;;;;;;;1.65;0.68;;;;;;;;;;5045425;28;20852;-71
2023/12/03 05:25:18;;;;;;;2.03;0.60;;;;;;;;;;5045417;28;20420;-70
2023/12/03 05:27:44;;;;;;;1.65;0.47;;;;;;;;;;5035547;28;20041;-70
2023/12/03 05:30:10;;;;;;;2.03;0.60;;;;;;;;;;5044729;28;20044;-71
2023/12/03 05:32:35;;;;;;;1.40;0.60;;;;;;;;;;5034998;28;20038;-70
2023/12/03 05:35:01;;;;;;;2.25;0.50;;;;;;;;;;5040594;28;20114;-71
2023/12/03 05:37:28;;;;;;;2.58;0.60;;;;;;;;;;5045229;28;20032;-70
2023/12/03 05:39:54;;;;;;;2.08;0.60;;;;;;;;;;5059939;28;20523;-71
2023/12/03 05:42:20;;;;;;;1.40;0.60;;;;;;;;;;5043595;28;20131;-74
2023/12/03 05:44:46;;;;;;;1.73;0.57;;;;;;;;;;5032590;28;20072;-75
2023/12/03 05:47:11;;;;;;;5.32;1.10;;;;;;;;;;5042576;28;20497;-74
2023/12/03 05:49:38;;;;;;;16.63;2.53;;;;;;;;;;5042711;28;20044;-71
2023/12/03 05:52:03;;;;;;;14.98;2.85;;;;;;;;;;5043715;28;20021;-75
2023/12/03 05:54:28;;;;;;;4.97;1.08;;;;;;;;;;5044241;28;20605;-75
2023/12/03 05:56:54;;;;;;;6.18;1.50;;;;;;;;;;5043761;28;20033;-76
2023/12/03 05:59:19;;;;;;;3.50;0.88;;;;;;;;;;5043681;28;20124;-76
2023/12/03 06:01:44;;;;;;;3.63;1.20;;;;;;;;;;5043884;28;20064;-75
2023/12/03 06:04:11;;;;;;;2.80;0.82;;;;;;;;;;5027125;28;20437;-75
2023/12/03 06:06:39;;;;;;;3.97;0.77;;;;;;;;;;5036345;28;20102;-75
2023/12/03 06:09:04;;;;;;;4.05;1.13;;;;;;;;;;5040870;28;20074;-76
2023/12/03 06:11:32;;;;;;;4.18;0.90;;;;;;;;;;5043504;28;20066;-76
2023/12/03 06:13:57;;;;;;;7.65;1.15;;;;;;;;;;5044894;28;20040;-76
2023/12/03 06:16:22;;;;;;;4.88;1.02;;;;;;;;;;5040635;28;20037;-75
2023/12/03 06:18:48;;;;;;;4.07;1.25;;;;;;;;;;5059951;28;20029;-75
2023/12/03 06:21:13;;;;;;;3.97;1.20;;;;;;;;;;5041172;28;20120;-74
2023/12/03 06:23:38;;;;;;;4.70;1.00;;;;;;;;;;5025308;28;20025;-76
2023/12/03 06:26:04;;;;;;;6.03;1.20;;;;;;;;;;5043085;28;20520;-71
2023/12/03 06:28:29;;;;;;;3.05;0.73;;;;;;;;;;5034500;28;20029;-76
2023/12/03 06:30:54;;;;;;;5.50;1.42;;;;;;;;;;5035528;28;20505;-71
2023/12/03 06:33:20;;;;;;;2.88;0.88;;;;;;;;;;5025845;28;20053;-71
2023/12/03 06:35:45;;;;;;;2.75;0.90;;;;;;;;;;5035072;28;20051;-71
2023/12/03 06:38:11;;;;;;;4.00;1.02;;;;;;;;;;5043695;28;20037;-71
2023/12/03 06:40:36;;;;;;;3.35;0.90;;;;;;;;;;5046786;28;20036;-71
2023/12/03 06:43:01;;;;;;;2.10;0.60;;;;;;;;;;5044702;28;20531;-71
2023/12/03 06:45:27;;;;;;;3.35;0.60;;;;;;;;;;5047184;28;20057;-71
2023/12/03 06:47:52;;;;;;;2.33;0.70;;;;;;;;;;5045696;28;20067;-71
2023/12/03 06:50:18;;;;;;;3.63;0.82;;;;;;;;;;5048236;28;20041;-70
2023/12/03 06:52:43;;;;;;;2.85;0.80;;;;;;;;;;5049213;28;20025;-71
2023/12/03 06:55:08;;;;;;;3.65;1.02;;;;;;;;;;5043239;28;20047;-71
2023/12/03 06:57:34;;;;;;;2.70;0.80;;;;;;;;;;5048575;28;20018;-70
2023/12/03 06:59:59;;;;;;;4.10;1.27;;;;;;;;;;5046769;28;20417;-70
2023/12/03 07:02:25;;;;;;;3.63;1.00;;;;;;;;;;5046831;28;20592;-70
2023/12/03 07:04:51;;;;;;;3.30;0.95;;;;;;;;;;5045290;28;20029;-70
2023/12/03 07:07:16;;;;;;;4.45;0.82;;;;;;;;;;5045507;28;20033;-71
2023/12/03 07:09:41;;;;;;;2.40;1.00;;;;;;;;;;5034532;28;20389;-69
2023/12/03 07:12:07;;;;;;;3.72;0.80;;;;;;;;;;5047517;28;20350;-72
2023/12/03 07:14:32;;;;;;;1.95;0.70;;;;;;;;;;5044443;28;20064;-70
2023/12/03 07:16:58;;;;;;;3.33;0.80;;;;;;;;;;5047483;28;20099;-71
2023/12/03 07:19:23;;;;;;;2.97;0.90;;;;;;;;;;5043531;28;20516;-72
2023/12/03 07:21:49;;;;;;;2.47;0.90;;;;;;;;;;5047257;28;20048;-71
2023/12/03 07:24:14;;;;;;;3.20;0.98;;;;;;;;;;5046457;28;20112;-71
2023/12/03 07:26:42;;;;;;;2.67;0.82;;;;;;;;;;5046722;28;20037;-71
2023/12/03 07:29:07;;;;;;;2.03;0.80;;;;;;;;;;5047014;28;20032;-72
2023/12/03 07:31:33;;;;;;;2.78;0.93;;;;;;;;;;5042697;28;20120;-72
2023/12/03 07:33:58;;;;;;;2.67;0.77;;;;;;;;;;5045688;28;20296;-71
2023/12/03 07:36:25;;;;;;;2.40;0.68;;;;;;;;;;5041789;28;20041;-70
2023/12/03 07:38:50;;;;;;;3.72;0.95;;;;;;;;;;5047863;28;20028;-72
2023/12/03 07:41:16;;;;;;;2.08;0.80;;;;;;;;;;5038463;28;20391;-71
2023/12/03 07:43:41;;;;;;;2.58;0.70;;;;;;;;;;5045114;28;20037;-73
2023/12/03 07:46:07;;;;;;;2.70;0.80;;;;;;;;;;5043362;28;20133;-71
2023/12/03 07:48:32;;;;;;;3.03;0.93;;;;;;;;;;5044840;28;20106;-72
2023/12/03 07:50:58;;;;;;;2.28;0.90;;;;;;;;;;5037357;28;20029;-72
2023/12/03 07:53:24;;;;;;;3.63;0.90;;;;;;;;;;5035016;28;20732;-73
2023/12/03 07:55:49;;;;;;;3.60;0.80;;;;;;;;;;5026449;28;20041;-76
2023/12/03 07:58:15;;;;;;;3.08;0.75;;;;;;;;;;5044031;28;20045;-72
2023/12/03 08:00:40;;;;;;;2.95;1.10;;;;;;;;;;5043313;28;20064;-71
2023/12/03 08:03:05;;;;;;;2.45;0.73;;;;;;;;;;5041687;28;20518;-73
2023/12/03 08:05:31;;;;;;;3.97;0.90;;;;;;;;;;5038021;28;20563;-72
2023/12/03 08:07:56;;;;;;;4.22;0.98;;;;;;;;;;5040610;28;20106;-72
2023/12/03 08:10:22;;;;;;;3.55;0.90;;;;;;;;;;5032029;28;20032;-72
2023/12/03 08:12:47;;;;;;;2.72;0.77;;;;;;;;;;5040923;28;20060;-72
2023/12/03 08:15:12;;;;;;;2.42;0.68;;;;;;;;;;5038274;28;20032;-74
2023/12/03 08:17:38;;;;;;;2.22;1.00;;;;;;;;;;5039871;28;20077;-72
2023/12/03 08:20:05;;;;;;;5.88;0.68;;;;;;;;;;5040007;28;20029;-72
2023/12/03 08:22:31;;;;;;;3.15;0.98;;;;;;;;;;5039944;28;20044;-72
2023/12/03 08:24:56;;;;;;;2.60;0.80;;;;;;;;;;5038011;28;20124;-73
2023/12/03 08:27:22;;;;;;;1.92;0.60;;;;;;;;;;5037431;28;20493;-72
2023/12/03 08:29:47;;;;;;;3.03;0.80;;;;;;;;;;5039500;28;20029;-72
2023/12/03 08:32:13;;;;;;;2.90;0.93;;;;;;;;;;5039482;28;20037;-70
2023/12/03 08:34:39;;;;;;;2.78;0.80;;;;;;;;;;5033074;28;20037;-70
2023/12/03 08:37:04;;;;;;;3.60;0.90;;;;;;;;;;5040298;28;20182;-71
2023/12/03 08:39:31;;;;;;;2.88;0.90;;;;;;;;;;5043032;28;20037;-71
2023/12/03 08:41:57;;;;;;;2.28;0.80;;;;;;;;;;5039167;28;20063;-70
2023/12/03 08:44:23;;;;;;;3.67;0.80;;;;;;;;;;5033678;28;20041;-70
2023/12/03 08:46:48;;;;;;;4.60;1.00;;;;;;;;;;5040306;28;20517;-70
2023/12/03 08:49:14;;;;;;;2.05;0.80;;;;;;;;;;5037919;28;20178;-70
2023/12/03 08:51:39;;;;;;;2.17;0.73;;;;;;;;;;5038328;28;20028;-70
2023/12/03 08:54:05;;;;;;;2.30;0.70;;;;;;;;;;5035535;28;20033;-70
2023/12/03 08:56:31;;;;;;;2.65;0.93;;;;;;;;;;5037830;28;20147;-70
2023/12/03 08:58:57;;;;;;;1.98;0.80;;;;;;;;;;5032046;28;20040;-71
2023/12/03 09:01:22;;;;;;;2.25;1.10;;;;;;;;;;5036600;28;20029;-70
2023/12/03 09:03:49;;;;;;;4.15;1.42;;;;;;;;;;5037922;28;20039;-70
2023/12/03 09:06:16;;;;;;;4.25;1.38;;;;;;;;;;5038105;28;20029;-70
2023/12/03 09:08:41;;;;;;;5.40;1.50;;;;;;;;;;5038468;28;20032;-69
2023/12/03 09:11:07;;;;;;;4.10;1.50;;;;;;;;;;5039479;28;20589;-70
2023/12/03 09:13:32;;;;;;;4.10;1.70;;;;;;;;;;5037733;28;20414;-70
2023/12/03 09:15:58;;;;;;;4.40;1.58;;;;;;;;;;5037450;28;20067;-70
2023/12/03 09:18:24;;;;;;;4.60;1.63;;;;;;;;;;5041224;28;20534;-70
2023/12/03 09:20:50;;;;;;;5.60;1.88;;;;;;;;;;5040106;28;20033;-70
2023/12/03 09:23:16;;;;;;;4.72;1.65;;;;;;;;;;5041457;28;20104;-70
2023/12/03 09:25:41;;;;;;;3.63;1.75;;;;;;;;;;5037977;28;20143;-70
2023/12/03 09:28:07;;;;;;;4.80;1.80;;;;;;;;;;5041793;28;20482;-71
2023/12/03 09:30:32;;;;;;;3.47;1.75;;;;;;;;;;5039527;28;20033;-70
2023/12/03 09:32:59;;;;;;;4.53;1.90;;;;;;;;;;5038015;28;20134;-72
2023/12/03 09:35:29;;;;;;;3.47;1.40;;;;;;;;;;5055736;28;20029;-71
2023/12/03 09:37:55;;;;;;;5.00;1.67;;;;;;;;;;5040665;28;20124;-72
2023/12/03 09:40:20;;;;;;;4.07;1.70;;;;;;;;;;5039823;28;20052;-72
2023/12/03 09:42:46;;;;;;;4.18;1.77;;;;;;;;;;5036363;28;20110;-72
2023/12/03 09:45:12;;;;;;;5.93;1.83;;;;;;;;;;5041542;28;20040;-72
2023/12/03 09:47:37;;;;;;;3.35;1.60;;;;;;;;;;5041955;28;20090;-73
2023/12/03 09:50:04;;;;;;;2.58;1.45;;;;;;;;;;5042129;28;20120;-72
2023/12/03 09:52:31;;;;;;;5.25;1.60;;;;;;;;;;5026879;28;20501;-70
2023/12/03 09:55:00;;;;;;;4.20;1.67;;;;;;;;;;5043543;28;20048;-72
2023/12/03 09:57:27;;;;;;;3.63;1.50;;;;;;;;;;5025176;28;20041;-72
2023/12/03 09:59:57;;;;;;;3.40;1.75;;;;;;;;;;5044993;28;20414;-72
2023/12/03 10:02:26;;;;;;;4.63;1.80;;;;;;;;;;5025152;28;20060;-72
2023/12/03 10:04:58;;;;;;;4.07;1.80;;;;;;;;;;5039626;28;20521;-71
2023/12/03 10:07:31;;;;;;;3.88;2.00;;;;;;;;;;4988147;28;20084;-72
2023/12/03 10:10:04;;;;;;;4.95;2.00;;;;;;;;;;5040677;28;20055;-72
2023/12/03 10:12:40;;;;;;;4.38;1.70;;;;;;;;;;5038820;28;20061;-71
2023/12/03 10:15:31;;;;;;;4.30;1.65;;;;;;;;;;5039395;28;20033;-72
2023/12/03 10:17:57;;;;;;;4.47;2.17;;;;;;;;;;5033907;28;20044;-71
2023/12/03 10:20:24;;;;;;;3.72;1.85;;;;;;;;;;5032734;28;20046;-73
2023/12/03 10:22:51;;;;;;;4.63;1.90;;;;;;;;;;5042395;28;20424;-72
2023/12/03 10:25:32;;;;;;;3.95;1.92;;;;;;;;;;5040858;28;20037;-72
2023/12/03 10:27:58;;;;;;;4.05;1.83;;;;;;;;;;5041715;28;20041;-72
2023/12/03 10:30:26;;;;;;;7.72;2.70;;;;;;;;;;5041310;28;20038;-73
2023/12/03 10:32:55;;;;;;;4.80;2.10;;;;;;;;;;5040756;28;20033;-71
2023/12/03 10:35:21;;;;;;;3.67;2.05;;;;;;;;;;5041144;28;20037;-70
2023/12/03 10:38:14;;;;;;;3.47;1.60;;;;;;;;;;5045695;28;20030;-70
2023/12/03 10:40:43;;;;;;;4.45;2.08;;;;;;;;;;5035041;28;20052;-71
2023/12/03 10:43:11;;;;;;;3.15;1.83;;;;;;;;;;5035546;28;20034;-75
2023/12/03 10:45:40;;;;;;;5.00;2.15;;;;;;;;;;5035422;28;20036;-74
2023/12/03 10:48:30;;;;;;;3.97;2.23;;;;;;;;;;5040715;28;20044;-75
2023/12/03 10:50:55;;;;;;;;;;;;;;;;;;5041463;28;20052;-69
2023/12/03 10:53:21;;;;;;;5.72;2.13;;;;;;;;;;5039796;28;19904;-70
2023/12/03 10:56:03;;;;;;;4.97;2.50;;;;;;;;;;5034685;28;20033;-72
2023/12/03 10:58:53;;;;;;;4.80;2.35;;;;;;;;;;5039679;28;21526;-71
2023/12/03 11:01:25;;;;;;;4.78;2.30;;;;;;;;;;5047174;28;20041;-72
2023/12/03 11:03:54;;;;;;;5.03;2.28;;;;;;;;;;5035333;28;20060;-74
2023/12/03 11:06:19;;;;;;;5.70;3.00;;;;;;;;;;5041856;28;20036;-72
2023/12/03 11:08:45;;;;;;;4.43;2.70;;;;;;;;;;5041321;28;20041;-71
2023/12/03 11:11:11;;;;;;;4.43;2.10;;;;;;;;;;5040165;28;20076;-68
2023/12/03 11:13:36;;;;;;;6.35;2.60;;;;;;;;;;5041139;28;20041;-70
2023/12/03 11:16:03;;;;;;;6.43;3.00;;;;;;;;;;5026232;28;20033;-71
2023/12/03 11:18:28;;;;;;;5.32;2.72;;;;;;;;;;5042295;28;20672;-71
2023/12/03 11:20:54;;;;;;;4.15;2.40;;;;;;;;;;5042589;28;20135;-72
2023/12/03 11:23:32;;;;;;;5.03;2.25;;;;;;;;;;5041401;28;20041;-72
2023/12/03 11:26:08;;;;;;;5.75;2.97;;;;;;;;;;5041712;28;20115;-72
2023/12/03 11:28:35;;;;;;;5.65;2.72;;;;;;;;;;5036438;28;20128;-71
2023/12/03 11:31:01;;;;;;;4.90;2.42;;;;;;;;;;5041598;28;20029;-70
2023/12/03 11:33:27;;;;;;;4.65;2.33;;;;;;;;;;5042629;28;20091;-72
2023/12/03 11:35:52;;;;;;;4.90;2.88;;;;;;;;;;5047156;28;20472;-71
2023/12/03 11:38:21;;;;;;;6.28;2.80;;;;;;;;;;5045796;28;20523;-71
2023/12/03 11:40:47;;;;;;;6.07;3.25;;;;;;;;;;5046275;28;20052;-71
2023/12/03 11:43:24;;;;;;;8.10;3.67;;;;;;;;;;5044290;28;20037;-72
2023/12/03 11:45:50;;;;;;;7.22;3.55;;;;;;;;;;5046223;28;20128;-71
2023/12/03 11:48:15;;;;;;;6.05;3.10;;;;;;;;;;5028718;28;20079;-71
2023/12/03 11:50:42;;;;;;;5.80;3.00;;;;;;;;;;5031297;28;20030;-71
2023/12/03 11:53:07;;;;;;;6.90;3.30;;;;;;;;;;5046242;28;20120;-71
2023/12/03 11:55:36;;;;;;;7.15;3.20;;;;;;;;;;5027121;28;20141;-72
2023/12/03 11:58:02;;;;;;;6.38;3.17;;;;;;;;;;5042392;28;20044;-72
2023/12/03 12:00:28;;;;;;;5.45;3.25;;;;;;;;;;5043854;28;20036;-73
2023/12/03 12:02:53;;;;;;;8.25;3.47;;;;;;;;;;5039468;28;20037;-72
2023/12/03 12:05:19;;;;;;;6.22;3.58;;;;;;;;;;5043833;28;20033;-72
2023/12/03 12:08:01;;;;;;;5.20;2.97;;;;;;;;;;5044297;28;20111;-72
2023/12/03 12:10:27;;;;;;;6.82;2.83;;;;;;;;;;5036684;28;20136;-78
2023/12/03 12:12:52;;;;;;;8.32;3.28;;;;;;;;;;5039710;28;20071;-73
2023/12/03 12:15:18;;;;;;;5.88;3.05;;;;;;;;;;5039743;28;20041;-73
2023/12/03 12:17:43;;;;;;;6.35;2.85;;;;;;;;;;5044165;28;20059;-74
2023/12/03 12:20:09;;;;;;;6.00;3.30;;;;;;;;;;5035005;28;20119;-75
2023/12/03 12:22:34;;;;;;;5.97;3.22;;;;;;;;;;5036926;28;20120;-74
2023/12/03 12:24:59;;;;;;;7.53;3.45;;;;;;;;;;5044929;28;20106;-75
2023/12/03 12:27:26;;;;;;;6.45;3.30;;;;;;;;;;5042870;28;20041;-74
2023/12/03 12:29:51;;;;;;;7.35;3.38;;;;;;;;;;5040476;28;20119;-72
2023/12/03 12:32:16;;;;;;;7.45;3.58;;;;;;;;;;5045598;28;20121;-71
2023/12/03 12:34:44;;;;;;;6.03;3.42;;;;;;;;;;5043085;28;20521;-74
2023/12/03 12:37:10;;;;;;;9.75;3.63;;;;;;;;;;5046406;28;20118;-76
2023/12/03 12:39:35;;;;;;;8.15;3.58;;;;;;;;;;5043090;28;20051;-71
2023/12/03 12:42:00;;;;;;;7.18;3.40;;;;;;;;;;5041741;28;20464;-71
2023/12/03 12:44:44;;;;;;;6.60;3.17;;;;;;;;;;5042839;28;20036;-72
2023/12/03 12:47:09;;;;;;;6.57;3.17;;;;;;;;;;5041667;28;20068;-70
2023/12/03 12:49:35;;;;;;;6.07;3.40;;;;;;;;;;5038258;28;20013;-71
2023/12/03 12:52:07;;;;;;;7.65;3.17;;;;;;;;;;5045069;28;20040;-71
2023/12/03 12:54:48;;;;;;;7.40;3.67;;;;;;;;;;5038362;28;20033;-71
2023/12/03 12:57:14;;;;;;;6.05;2.92;;;;;;;;;;5042187;28;20340;-70
2023/12/03 12:59:39;;;;;;;6.78;3.20;;;;;;;;;;5041436;28;20504;-71
2023/12/03 13:02:05;;;;;;;6.95;3.58;;;;;;;;;;5026731;28;20063;-72
2023/12/03 13:04:30;;;;;;;5.70;3.40;;;;;;;;;;5043889;28;20060;-71
2023/12/03 13:06:55;;;;;;;7.03;3.08;;;;;;;;;;5045425;28;20044;-71
2023/12/03 13:09:20;;;;;;;6.00;3.03;;;;;;;;;;5045686;28;20037;-72
2023/12/03 13:11:46;;;;;;;6.18;3.10;;;;;;;;;;5044201;28;20036;-71
2023/12/03 13:14:11;;;;;;;6.55;3.17;;;;;;;;;;5037186;28;20065;-73
2023/12/03 13:16:37;;;;;;;5.10;3.30;;;;;;;;;;5039558;28;20509;-71
2023/12/03 13:19:02;;;;;;;5.30;2.92;;;;;;;;;;5038628;28;20037;-72
2023/12/03 13:21:28;;;;;;;7.45;3.20;;;;;;;;;;5020474;28;20289;-71
2023/12/03 13:23:53;;;;;;;5.32;2.95;;;;;;;;;;5040182;28;20029;-71
2023/12/03 13:26:18;;;;;;;5.93;2.72;;;;;;;;;;5032594;28;20037;-71
2023/12/03 13:28:45;;;;;;;4.93;2.65;;;;;;;;;;5031884;28;21792;-74
2023/12/03 13:31:10;;;;;;;7.20;3.40;;;;;;;;;;5037821;28;20918;-72
2023/12/03 13:33:36;;;;;;;5.88;2.70;;;;;;;;;;5035059;28;20132;-72
2023/12/03 13:36:01;;;;;;;6.95;2.97;;;;;;;;;;5016508;28;20033;-71
2023/12/03 13:38:27;;;;;;;6.10;3.10;;;;;;;;;;5039216;28;20052;-70
2023/12/03 13:40:54;;;;;;;6.50;2.95;;;;;;;;;;5038537;28;20644;-70
2023/12/03 13:43:20;;;;;;;5.45;2.88;;;;;;;;;;5037921;28;20041;-70
2023/12/03 13:45:45;;;;;;;5.60;3.20;;;;;;;;;;5038495;28;20032;-70
2023/12/03 13:48:10;;;;;;;5.05;3.13;;;;;;;;;;5035508;28;20048;-70
2023/12/03 13:50:37;;;;;;;5.95;3.42;;;;;;;;;;5035436;28;20082;-72
2023/12/03 13:53:02;;;;;;;7.25;3.85;;;;;;;;;;5036845;28;21026;-72
2023/12/03 13:55:27;;;;;;;5.47;3.15;;;;;;;;;;5037870;28;20450;-72
2023/12/03 13:57:53;;;;;;;6.47;2.88;;;;;;;;;;5013464;28;20124;-75
2023/12/03 14:00:19;;;;;;;5.93;3.17;;;;;;;;;;5036050;28;20048;-75
2023/12/03 14:02:46;;;;;;;5.80;3.15;;;;;;;;;;5038362;28;20053;-73
2023/12/03 14:05:11;;;;;;;4.93;2.72;;;;;;;;;;5030540;28;20834;-73
2023/12/03 14:07:36;;;;;;;6.63;2.70;;;;;;;;;;5031273;28;20040;-72
2023/12/03 14:10:02;;;;;;;5.00;2.88;;;;;;;;;;5038067;28;20037;-73
2023/12/03 14:12:27;;;;;;;6.07;2.70;;;;;;;;;;5036946;28;20037;-72
2023/12/03 14:14:52;;;;;;;4.32;2.70;;;;;;;;;;5038481;28;20037;-72
2023/12/03 14:17:18;;;;;;;5.43;2.72;;;;;;;;;;5034785;28;20533;-72
2023/12/03 14:19:43;;;;;;;5.72;2.72;;;;;;;;;;5038229;28;20111;-72
2023/12/03 14:22:08;;;;;;;4.75;2.83;;;;;;;;;;5027439;28;20102;-71
2023/12/03 14:24:34;;;;;;;4.75;3.00;;;;;;;;;;5032404;28;20453;-71
2023/12/03 14:26:59;;;;;;;4.47;2.55;;;;;;;;;;5029071;28;20057;-71
2023/12/03 14:29:24;;;;;;;6.45;3.05;;;;;;;;;;5042780;28;20560;-71
2023/12/03 14:31:50;;;;;;;10.40;3.00;;;;;;;;;;5036342;28;20051;-70
2023/12/03 14:34:15;;;;;;;5.18;3.00;;;;;;;;;;5036027;28;20143;-73
2023/12/03 14:36:41;;;;;;;5.45;3.00;;;;;;;;;;5031899;28;20458;-72
2023/12/03 14:39:06;;;;;;;4.53;2.58;;;;;;;;;;5037026;28;20049;-71
2023/12/03 14:41:32;;;;;;;4.90;2.80;;;;;;;;;;5034909;28;20467;-71
2023/12/03 14:43:57;;;;;;;5.63;2.88;;;;;;;;;;5037279;28;20528;-73